createdAt,value
2019-05-25T00:00:22.250Z,101651.48
2019-05-25T00:02:51.783Z,101648.94
2019-05-25T00:05:22.733Z,101648.99
2019-05-25T00:07:52.582Z,101647.86
2019-05-25T00:10:22.042Z,101649.08
2019-05-25T00:12:51.555Z,101643.92
2019-05-25T00:15:21.229Z,101643.61
2019-05-25T00:17:50.980Z,101650.35
2019-05-25T00:20:20.418Z,101649.77
2019-05-25T00:22:49.877Z,101645.26
2019-05-25T00:25:19.677Z,101646.28
2019-05-25T00:27:49.222Z,101649.55
2019-05-25T00:30:19.104Z,101650.47
2019-05-25T00:32:48.580Z,101651.71
2019-05-25T00:35:18.255Z,101649.94
2019-05-25T00:37:47.731Z,101651.77
2019-05-25T00:40:17.575Z,101649.25
2019-05-25T00:42:46.985Z,101648.36
2019-05-25T00:45:16.788Z,101644.69
2019-05-25T00:47:46.191Z,101652.78
2019-05-25T00:50:16.045Z,101651.77
2019-05-25T00:52:45.528Z,101650.23
2019-05-25T00:55:15.051Z,101649.84
2019-05-25T00:57:44.471Z,101653.30
2019-05-25T01:00:14.419Z,101650.41
2019-05-25T01:02:43.879Z,101652.61
2019-05-25T01:05:13.611Z,101648.47
2019-05-25T01:07:43.259Z,101649.16
2019-05-25T01:10:13.693Z,101644.80
2019-05-25T01:12:43.763Z,101654.28
2019-05-25T01:15:14.106Z,101648.24
2019-05-25T01:17:43.672Z,101653.69
2019-05-25T01:20:14.207Z,101644.48
2019-05-25T01:22:43.747Z,101646.68
2019-05-25T01:25:13.673Z,101644.42
2019-05-25T01:27:43.285Z,101643.38
2019-05-25T01:30:13.711Z,101648.24
2019-05-25T01:32:43.453Z,101641.19
2019-05-25T01:35:12.985Z,101646.33
2019-05-25T01:37:42.448Z,101653.73
2019-05-25T01:40:12.981Z,101650.58
2019-05-25T01:42:42.457Z,101649.33
2019-05-25T01:45:12.273Z,101649.25
2019-05-25T01:47:43.485Z,101657.52
2019-05-25T01:50:13.121Z,101650.29
2019-05-25T01:52:42.565Z,101662.78
2019-05-25T01:55:12.502Z,101665.55
2019-05-25T01:57:41.947Z,101663.23
2019-05-25T02:00:11.764Z,101658.44
2019-05-25T02:02:41.280Z,101658.03
2019-05-25T02:05:10.878Z,101665.95
2019-05-25T02:07:40.423Z,101663.59
2019-05-25T02:10:10.591Z,101668.23
2019-05-25T02:12:40.034Z,101668.50
2019-05-25T02:15:09.872Z,101663.98
2019-05-25T02:17:39.365Z,101671.84
2019-05-25T02:20:09.216Z,101673.66
2019-05-25T02:22:38.652Z,101674.61
2019-05-25T02:25:17.530Z,101673.98
2019-05-25T02:27:41.402Z,101675.73
2019-05-25T02:30:12.941Z,101666.63
2019-05-25T02:32:42.590Z,101665.95
2019-05-25T02:35:15.225Z,101666.13
2019-05-25T02:37:44.660Z,101663.56
2019-05-25T02:40:15.083Z,101669.95
2019-05-25T02:42:44.504Z,101663.56
2019-05-25T02:45:14.239Z,101677.04
2019-05-25T02:47:43.758Z,101675.22
2019-05-25T02:50:13.694Z,101673.42
2019-05-25T02:52:43.136Z,101669.95
2019-05-25T02:55:13.464Z,101674.50
2019-05-25T02:57:43.192Z,101673.14
2019-05-25T03:00:13.499Z,101677.25
2019-05-25T03:02:43.614Z,101677.16
2019-05-25T03:05:15.338Z,101675.23
2019-05-25T03:07:45.782Z,101678.79
2019-05-25T03:10:16.721Z,101675.23
2019-05-25T03:12:46.748Z,101678.58
2019-05-25T03:15:17.532Z,101678.85
2019-05-25T03:17:46.969Z,101678.85
2019-05-25T03:20:16.545Z,101681.74
2019-05-25T03:22:45.987Z,101680.59
2019-05-25T03:25:16.022Z,101673.98
2019-05-25T03:27:45.753Z,101684.34
2019-05-25T03:30:15.696Z,101685.41
2019-05-25T03:32:45.149Z,101682.02
2019-05-25T03:35:14.560Z,101685.36
2019-05-25T03:37:44.009Z,101687.52
2019-05-25T03:40:13.676Z,101684.06
2019-05-25T03:42:43.265Z,101686.09
2019-05-25T03:45:13.035Z,101685.19
2019-05-25T03:47:42.560Z,101687.91
2019-05-25T03:50:12.027Z,101686.33
2019-05-25T03:52:41.594Z,101688.82
2019-05-25T03:55:11.110Z,101695.09
2019-05-25T03:57:40.659Z,101692.88
2019-05-25T04:00:10.627Z,101692.78
2019-05-25T04:02:40.085Z,101688.58
2019-05-25T04:05:09.801Z,101695.60
2019-05-25T04:07:39.281Z,101701.39
2019-05-25T04:10:09.244Z,101705.16
2019-05-25T04:12:38.673Z,101706.28
2019-05-25T04:15:08.629Z,101711.87
2019-05-25T04:17:38.081Z,101712.47
2019-05-25T04:20:08.361Z,101718.73
2019-05-25T04:22:37.796Z,101715.41
2019-05-25T04:25:07.424Z,101712.22
2019-05-25T04:27:36.864Z,101711.50
2019-05-25T04:30:06.750Z,101713.67
2019-05-25T04:32:36.383Z,101711.60
2019-05-25T04:35:06.647Z,101712.91
2019-05-25T04:37:36.106Z,101709.00
2019-05-25T04:40:08.486Z,101717.30
2019-05-25T04:42:38.184Z,101722.63
2019-05-25T04:45:08.873Z,101729.05
2019-05-25T04:47:38.312Z,101728.82
2019-05-25T04:50:08.351Z,101727.36
2019-05-25T04:52:41.214Z,101730.23
2019-05-25T04:55:09.321Z,101734.36
2019-05-25T04:57:38.850Z,101733.62
2019-05-25T05:00:09.193Z,101733.75
2019-05-25T05:02:38.636Z,101743.41
2019-05-25T05:05:08.563Z,101748.42
2019-05-25T05:07:37.972Z,101742.03
2019-05-25T05:10:08.169Z,101746.16
2019-05-25T05:12:37.621Z,101749.70
2019-05-25T05:15:07.692Z,101751.13
2019-05-25T05:17:37.202Z,101749.30
2019-05-25T05:20:08.553Z,101748.83
2019-05-25T05:22:37.972Z,101746.30
2019-05-25T05:25:08.610Z,101744.59
2019-05-25T05:27:38.795Z,101751.22
2019-05-25T05:30:09.615Z,101747.45
2019-05-25T05:32:39.212Z,101744.84
2019-05-25T05:35:09.558Z,101743.69
2019-05-25T05:37:41.797Z,101746.92
2019-05-25T05:40:11.491Z,101742.05
2019-05-25T05:42:43.504Z,101741.72
2019-05-25T05:45:13.560Z,101743.41
2019-05-25T05:47:44.661Z,101739.09
2019-05-25T05:50:14.338Z,101738.81
2019-05-25T05:52:43.762Z,101735.30
2019-05-25T05:55:17.155Z,101735.88
2019-05-25T05:57:44.660Z,101740.03
2019-05-25T06:00:14.868Z,101741.81
2019-05-25T06:02:44.299Z,101753.40
2019-05-25T06:05:14.194Z,101757.36
2019-05-25T06:07:43.907Z,101751.58
2019-05-25T06:10:13.848Z,101751.52
2019-05-25T06:12:43.301Z,101749.50
2019-05-25T06:15:13.264Z,101752.73
2019-05-25T06:17:42.659Z,101756.80
2019-05-25T06:20:12.435Z,101757.40
2019-05-25T06:22:41.829Z,101760.67
2019-05-25T06:25:11.694Z,101761.16
2019-05-25T06:27:41.232Z,101761.20
2019-05-25T06:30:11.337Z,101764.99
2019-05-25T06:32:42.856Z,101763.08
2019-05-25T06:35:12.659Z,101767.09
2019-05-25T06:37:42.136Z,101772.61
2019-05-25T06:40:12.204Z,101777.25
2019-05-25T06:42:43.081Z,101767.36
2019-05-25T06:45:12.854Z,101771.66
2019-05-25T06:47:43.102Z,101767.22
2019-05-25T06:50:13.171Z,101764.92
2019-05-25T06:52:42.561Z,101771.63
2019-05-25T06:55:12.290Z,101766.75
2019-05-25T06:57:43.885Z,101762.66
2019-05-25T07:00:14.209Z,101766.74
2019-05-25T07:02:43.751Z,101768.73
2019-05-25T07:05:13.376Z,101765.67
2019-05-25T07:07:42.771Z,101774.33
2019-05-25T07:10:12.829Z,101773.92
2019-05-25T07:12:42.223Z,101778.81
2019-05-25T07:15:12.331Z,101778.05
2019-05-25T07:17:41.739Z,101780.52
2019-05-25T07:20:11.433Z,101781.80
2019-05-25T07:22:40.904Z,101792.38
2019-05-25T07:25:10.901Z,101796.13
2019-05-25T07:27:40.300Z,101793.29
2019-05-25T07:30:10.474Z,101796.30
2019-05-25T07:32:40.166Z,101796.25
2019-05-25T07:35:11.038Z,101803.83
2019-05-25T07:37:40.534Z,101810.22
2019-05-25T07:40:10.405Z,101806.89
2019-05-25T07:42:42.980Z,101813.62
2019-05-25T07:45:12.458Z,101817.13
2019-05-25T07:47:42.050Z,101817.88
2019-05-25T07:50:11.809Z,101812.48
2019-05-25T07:52:41.313Z,101813.64
2019-05-25T07:55:10.786Z,101816.34
2019-05-25T07:57:40.213Z,101818.16
2019-05-25T08:00:10.159Z,101818.12
2019-05-25T08:02:39.585Z,101813.83
2019-05-25T08:05:10.746Z,101813.41
2019-05-25T08:07:40.450Z,101808.59
2019-05-25T08:10:10.190Z,101811.61
2019-05-25T08:12:39.628Z,101816.31
2019-05-25T08:15:09.582Z,101816.36
2019-05-25T08:17:39.133Z,101822.12
2019-05-25T08:20:08.875Z,101818.91
2019-05-25T08:22:39.946Z,101814.96
2019-05-25T08:25:09.788Z,101822.63
2019-05-25T08:27:40.079Z,101822.91
2019-05-25T08:30:09.755Z,101830.25
2019-05-25T08:32:39.218Z,101833.87
2019-05-25T08:35:08.838Z,101840.19
2019-05-25T08:37:38.296Z,101845.41
2019-05-25T08:40:08.218Z,101840.16
2019-05-25T08:42:37.664Z,101844.73
2019-05-25T08:45:07.511Z,101853.69
2019-05-25T08:47:37.006Z,101856.59
2019-05-25T08:50:07.719Z,101854.09
2019-05-25T08:52:37.705Z,101855.92
2019-05-25T08:55:08.891Z,101861.24
2019-05-25T08:57:39.873Z,101859.15
2019-05-25T09:00:09.907Z,101859.47
2019-05-25T09:02:39.343Z,101855.58
2019-05-25T09:05:09.006Z,101859.19
2019-05-25T09:07:38.631Z,101858.30
2019-05-25T09:10:09.860Z,101855.84
2019-05-25T09:12:39.304Z,101859.30
2019-05-25T09:15:09.061Z,101857.75
2019-05-25T09:17:38.504Z,101857.88
2019-05-25T09:20:09.175Z,101860.13
2019-05-25T09:22:38.576Z,101863.84
2019-05-25T09:25:08.609Z,101861.10
2019-05-25T09:27:38.048Z,101858.23
2019-05-25T09:30:08.498Z,101861.34
2019-05-25T09:32:37.997Z,101861.45
2019-05-25T09:35:08.582Z,101862.28
2019-05-25T09:37:39.633Z,101865.53
2019-05-25T09:40:09.728Z,101864.00
2019-05-25T09:42:40.899Z,101863.83
2019-05-25T09:45:17.376Z,101861.17
2019-05-25T09:47:47.024Z,101862.16
2019-05-25T09:50:17.201Z,101863.03
2019-05-25T09:52:46.649Z,101862.38
2019-05-25T09:55:16.891Z,101859.19
2019-05-25T09:57:46.314Z,101863.92
2019-05-25T10:00:16.777Z,101855.45
2019-05-25T10:02:46.683Z,101855.82
2019-05-25T10:05:17.865Z,101855.72
2019-05-25T10:07:47.398Z,101860.58
2019-05-25T10:10:17.555Z,101853.09
2019-05-25T10:12:46.951Z,101848.84
2019-05-25T10:15:16.466Z,101851.50
2019-05-25T10:17:45.945Z,101855.39
2019-05-25T10:20:15.729Z,101853.73
2019-05-25T10:22:45.164Z,101851.43
2019-05-25T10:25:15.412Z,101851.23
2019-05-25T10:27:44.825Z,101848.36
2019-05-25T10:30:14.985Z,101842.15
2019-05-25T10:32:44.393Z,101844.76
2019-05-25T10:35:14.585Z,101844.56
2019-05-25T10:37:43.987Z,101849.44
2019-05-25T10:40:34.204Z,101847.87
2019-05-25T10:43:04.817Z,101850.63
2019-05-25T10:45:34.267Z,101841.88
2019-05-25T10:48:04.012Z,101850.87
2019-05-25T10:50:33.524Z,101853.21
2019-05-25T10:53:03.264Z,101841.31
2019-05-25T10:55:32.850Z,101851.14
2019-05-25T10:58:02.285Z,101854.69
2019-05-25T11:00:31.858Z,101849.26
2019-05-25T11:03:01.297Z,101849.53
2019-05-25T11:05:30.753Z,101850.34
2019-05-25T11:08:00.470Z,101855.21
2019-05-25T11:10:29.945Z,101849.59
2019-05-25T11:13:01.019Z,101856.84
2019-05-25T11:15:30.434Z,101851.17
2019-05-25T11:17:59.884Z,101859.73
2019-05-25T11:20:29.309Z,101857.64
2019-05-25T11:22:58.818Z,101860.31
2019-05-25T11:25:28.378Z,101864.02
2019-05-25T11:27:58.027Z,101860.14
2019-05-25T11:30:28.461Z,101859.19
2019-05-25T11:32:59.527Z,101853.59
2019-05-25T11:35:28.995Z,101857.96
2019-05-25T11:37:58.425Z,101868.85
2019-05-25T11:40:28.244Z,101875.28
2019-05-25T11:42:57.739Z,101873.22
2019-05-25T11:45:27.293Z,101876.80
2019-05-25T11:47:56.734Z,101877.79
2019-05-25T11:50:26.251Z,101884.50
2019-05-25T11:52:55.706Z,101877.96
2019-05-25T11:55:25.474Z,101884.17
2019-05-25T11:57:54.872Z,101877.64
2019-05-25T12:00:26.070Z,101875.40
2019-05-25T12:02:55.705Z,101875.44
2019-05-25T12:05:25.376Z,101869.17
2019-05-25T12:07:55.054Z,101886.86
2019-05-25T12:10:24.566Z,101885.28
2019-05-25T12:12:54.047Z,101876.95
2019-05-25T12:15:23.602Z,101884.31
2019-05-25T12:17:53.005Z,101876.83
2019-05-25T12:20:22.770Z,101870.11
2019-05-25T12:22:52.445Z,101873.25
2019-05-25T12:25:21.978Z,101875.91
2019-05-25T12:27:51.375Z,101875.91
2019-05-25T12:30:22.753Z,101878.15
2019-05-25T12:32:52.159Z,101879.78
2019-05-25T12:35:21.779Z,101869.25
2019-05-25T12:37:51.179Z,101877.36
2019-05-25T12:40:21.231Z,101866.55
2019-05-25T12:42:50.679Z,101866.12
2019-05-25T12:45:23.568Z,101869.09
2019-05-25T12:47:53.937Z,101885.36
2019-05-25T12:50:23.871Z,101885.36
2019-05-25T12:52:53.273Z,101880.55
2019-05-25T12:55:22.712Z,101885.91
2019-05-25T12:57:52.123Z,101882.61
2019-05-25T13:00:21.902Z,101883.22
2019-05-25T13:02:51.387Z,101881.92
2019-05-25T13:05:33.692Z,101888.20
2019-05-25T13:07:53.581Z,101888.02
2019-05-25T13:10:23.021Z,101884.20
2019-05-25T13:12:52.504Z,101893.31
2019-05-25T13:15:21.926Z,101889.22
2019-05-25T13:17:51.410Z,101896.83
2019-05-25T13:20:20.902Z,101894.39
2019-05-25T13:22:50.302Z,101891.84
2019-05-25T13:25:19.801Z,101891.31
2019-05-25T13:27:49.268Z,101897.81
2019-05-25T13:30:18.928Z,101898.86
2019-05-25T13:32:48.373Z,101904.53
2019-05-25T13:35:17.928Z,101901.96
2019-05-25T13:37:47.318Z,101899.98
2019-05-25T13:40:17.219Z,101900.02
2019-05-25T13:42:46.683Z,101897.46
2019-05-25T13:45:16.279Z,101897.92
2019-05-25T13:47:45.742Z,101894.37
2019-05-25T13:50:15.628Z,101896.12
2019-05-25T13:52:45.042Z,101896.53
2019-05-25T13:55:14.915Z,101891.78
2019-05-25T13:57:44.522Z,101888.68
2019-05-25T14:00:14.965Z,101885.38
2019-05-25T14:02:44.365Z,101895.80
2019-05-25T14:05:14.612Z,101894.31
2019-05-25T14:07:44.012Z,101889.55
2019-05-25T14:10:13.765Z,101888.44
2019-05-25T14:12:43.239Z,101896.27
2019-05-25T14:15:13.257Z,101891.42
2019-05-25T14:17:43.491Z,101897.36
2019-05-25T14:20:14.652Z,101897.88
2019-05-25T14:22:44.133Z,101897.88
2019-05-25T14:25:13.837Z,101898.11
2019-05-25T14:27:43.237Z,101899.64
2019-05-25T14:30:13.594Z,101899.25
2019-05-25T14:32:43.228Z,101899.29
2019-05-25T14:35:13.065Z,101894.55
2019-05-25T14:37:42.535Z,101896.77
2019-05-25T14:40:12.282Z,101888.53
2019-05-25T14:42:41.714Z,101896.03
2019-05-25T14:45:14.461Z,101886.48
2019-05-25T14:47:43.873Z,101886.48
2019-05-25T14:50:13.961Z,101891.42
2019-05-25T14:52:43.771Z,101891.88
2019-05-25T14:55:13.869Z,101887.95
2019-05-25T14:57:43.316Z,101877.55
2019-05-25T15:00:16.016Z,101878.25
2019-05-25T15:02:45.518Z,101874.48
2019-05-25T15:05:15.190Z,101869.42
2019-05-25T15:07:45.213Z,101867.34
2019-05-25T15:10:15.621Z,101871.32
2019-05-25T15:12:45.010Z,101870.39
2019-05-25T15:15:15.036Z,101873.78
2019-05-25T15:17:44.632Z,101869.52
2019-05-25T15:20:15.383Z,101869.18
2019-05-25T15:22:46.976Z,101867.55
2019-05-25T15:25:16.731Z,101861.03
2019-05-25T15:27:46.180Z,101862.23
2019-05-25T15:30:16.143Z,101847.68
2019-05-25T15:32:45.830Z,101850.46
2019-05-25T15:35:15.574Z,101853.47
2019-05-25T15:37:45.216Z,101849.38
2019-05-25T15:40:15.334Z,101850.18
2019-05-25T15:42:44.817Z,101852.23
2019-05-25T15:45:15.907Z,101850.36
2019-05-25T15:47:45.686Z,101848.67
2019-05-25T15:50:17.225Z,101849.38
2019-05-25T15:52:46.752Z,101846.12
2019-05-25T15:55:17.998Z,101845.00
2019-05-25T15:57:47.723Z,101840.94
2019-05-25T16:00:17.857Z,101837.53
2019-05-25T16:02:47.447Z,101845.34
2019-05-25T16:05:17.342Z,101837.33
2019-05-25T16:07:49.953Z,101833.64
2019-05-25T16:10:19.589Z,101833.58
2019-05-25T16:12:49.049Z,101827.75
2019-05-25T16:15:39.312Z,101814.68
2019-05-25T16:18:08.903Z,101814.68
2019-05-25T16:20:38.307Z,101829.09
2019-05-25T16:23:07.852Z,101823.23
2019-05-25T16:25:37.383Z,101823.23
2019-05-25T16:28:06.823Z,101832.42
2019-05-25T16:30:36.367Z,101820.47
2019-05-25T16:33:14.618Z,101820.47
2019-05-25T16:35:37.692Z,101810.14
2019-05-25T16:38:07.459Z,101810.79
2019-05-25T16:40:37.057Z,101807.99
2019-05-25T16:43:06.494Z,101818.81
2019-05-25T16:45:35.886Z,101808.99
2019-05-25T16:48:05.492Z,101804.98
2019-05-25T16:50:34.894Z,101800.98
2019-05-25T16:53:04.584Z,101800.88
2019-05-25T16:55:34.060Z,101802.51
2019-05-25T16:58:03.586Z,101805.38
2019-05-25T17:00:32.994Z,101809.87
2019-05-25T17:03:02.412Z,101809.87
2019-05-25T17:05:31.812Z,101805.77
2019-05-25T17:08:02.432Z,101805.83
2019-05-25T17:10:31.879Z,101811.83
2019-05-25T17:13:01.542Z,101812.56
2019-05-25T17:15:31.139Z,101817.06
2019-05-25T17:18:04.354Z,101817.88
2019-05-25T17:20:33.365Z,101813.31
2019-05-25T17:23:05.458Z,101820.30
2019-05-25T17:25:34.946Z,101818.30
2019-05-25T17:28:04.377Z,101823.45
2019-05-25T17:30:45.106Z,101813.77
2019-05-25T17:33:15.213Z,101820.70
2019-05-25T17:35:44.826Z,101820.95
2019-05-25T17:38:14.460Z,101826.77
2019-05-25T17:40:43.915Z,101825.08
2019-05-25T17:43:13.364Z,101831.14
2019-05-25T17:45:42.857Z,101828.23
2019-05-25T17:48:12.530Z,101825.30
2019-05-25T17:50:42.071Z,101828.58
2019-05-25T17:53:11.478Z,101826.89
2019-05-25T17:55:41.082Z,101834.41
2019-05-25T17:58:10.478Z,101828.55
2019-05-25T18:00:43.898Z,101832.66
2019-05-25T18:03:13.297Z,101843.81
2019-05-25T18:05:42.724Z,101833.62
2019-05-25T18:08:12.264Z,101829.85
2019-05-25T18:10:52.868Z,101820.61
2019-05-25T18:13:13.176Z,101822.38
2019-05-25T18:15:42.841Z,101824.69
2019-05-25T18:18:12.246Z,101825.23
2019-05-25T18:20:41.753Z,101824.69
2019-05-25T18:23:11.184Z,101820.61
2019-05-25T18:25:40.697Z,101817.86
2019-05-25T18:28:11.020Z,101814.62
2019-05-25T18:30:41.117Z,101816.81
2019-05-25T18:33:10.563Z,101814.03
2019-05-25T18:35:41.850Z,101808.15
2019-05-25T18:38:11.289Z,101815.94
2019-05-25T18:40:40.910Z,101812.83
2019-05-25T18:43:10.334Z,101816.27
2019-05-25T18:45:39.767Z,101809.71
2019-05-25T18:48:09.258Z,101810.39
2019-05-25T18:50:38.703Z,101804.42
2019-05-25T18:53:08.128Z,101800.36
2019-05-25T18:55:37.532Z,101805.27
2019-05-25T18:58:06.942Z,101804.30
2019-05-25T19:00:36.452Z,101793.67
2019-05-25T19:03:06.227Z,101796.83
2019-05-25T19:05:36.137Z,101792.61
2019-05-25T19:08:05.614Z,101793.02
2019-05-25T19:10:35.163Z,101796.37
2019-05-25T19:13:04.642Z,101797.42
2019-05-25T19:15:34.373Z,101797.36
2019-05-25T19:18:03.909Z,101805.14
2019-05-25T19:20:33.777Z,101803.45
2019-05-25T19:23:03.198Z,101801.66
2019-05-25T19:25:32.647Z,101804.02
2019-05-25T19:28:02.047Z,101795.33
2019-05-25T19:30:31.497Z,101788.83
2019-05-25T19:33:01.485Z,101801.31
2019-05-25T19:35:31.022Z,101793.11
2019-05-25T19:38:00.507Z,101801.19
2019-05-25T19:40:31.461Z,101807.21
2019-05-25T19:43:00.946Z,101804.14
2019-05-25T19:45:32.725Z,101801.35
2019-05-25T19:48:01.629Z,101800.06
2019-05-25T19:50:31.057Z,101801.38
2019-05-25T19:53:00.493Z,101796.63
2019-05-25T19:55:29.901Z,101800.19
2019-05-25T19:57:59.341Z,101792.73
2019-05-25T20:00:28.756Z,101796.30
2019-05-25T20:02:58.176Z,101794.45
2019-05-25T20:05:27.616Z,101791.21
2019-05-25T20:07:57.059Z,101793.41
2019-05-25T20:10:26.667Z,101789.95
2019-05-25T20:12:56.182Z,101791.11
2019-05-25T20:15:25.677Z,101793.59
2019-05-25T20:17:55.457Z,101798.71
2019-05-25T20:20:25.185Z,101796.91
2019-05-25T20:22:54.615Z,101793.63
2019-05-25T20:25:24.034Z,101792.00
2019-05-25T20:27:53.643Z,101786.48
2019-05-25T20:30:23.428Z,101781.02
2019-05-25T20:32:52.872Z,101783.53
2019-05-25T20:35:32.484Z,101781.02
2019-05-25T20:37:53.826Z,101781.58
2019-05-25T20:40:23.326Z,101779.53
2019-05-25T20:42:52.918Z,101774.66
2019-05-25T20:45:22.465Z,101775.24
2019-05-25T20:47:51.902Z,101772.76
2019-05-25T20:50:22.954Z,101767.75
2019-05-25T20:52:52.397Z,101758.91
2019-05-25T20:55:21.859Z,101760.64
2019-05-25T20:57:51.231Z,101758.01
2019-05-25T21:00:23.994Z,101767.27
2019-05-25T21:03:05.179Z,101773.15
2019-05-25T21:05:23.157Z,101775.94
2019-05-25T21:07:52.584Z,101775.00
2019-05-25T21:10:22.082Z,101766.91
2019-05-25T21:12:51.523Z,101758.81
2019-05-25T21:15:21.036Z,101746.41
2019-05-25T21:17:50.481Z,101741.80
2019-05-25T21:20:20.000Z,101736.62
2019-05-25T21:22:49.662Z,101735.00
2019-05-25T21:25:19.201Z,101730.77
2019-05-25T21:27:48.618Z,101731.40
2019-05-25T21:30:19.482Z,101731.08
2019-05-25T21:32:48.985Z,101734.91
2019-05-25T21:35:20.142Z,101735.98
2019-05-25T21:37:49.582Z,101732.99
2019-05-25T21:40:19.368Z,101726.04
2019-05-25T21:42:48.960Z,101732.20
2019-05-25T21:45:19.221Z,101728.21
2019-05-25T21:47:48.729Z,101724.64
2019-05-25T21:50:19.155Z,101720.96
2019-05-25T21:52:48.584Z,101717.64
2019-05-25T21:55:17.979Z,101719.73
2019-05-25T21:57:48.461Z,101717.72
2019-05-25T22:00:23.716Z,101716.92
2019-05-25T22:02:53.220Z,101710.05
2019-05-25T22:05:23.389Z,101709.30
2019-05-25T22:07:52.887Z,101709.19
2019-05-25T22:10:22.278Z,101705.55
2019-05-25T22:12:51.880Z,101701.69
2019-05-25T22:15:21.452Z,101687.17
2019-05-25T22:17:52.515Z,101694.77
2019-05-25T22:20:22.344Z,101688.35
2019-05-25T22:22:51.752Z,101686.48
2019-05-25T22:25:21.429Z,101684.32
2019-05-25T22:27:50.954Z,101685.73
2019-05-25T22:30:21.174Z,101680.80
2019-05-25T22:32:50.677Z,101669.27
2019-05-25T22:35:20.192Z,101672.61
2019-05-25T22:37:49.794Z,101665.19
2019-05-25T22:40:20.326Z,101667.53
2019-05-25T22:42:49.759Z,101663.70
2019-05-25T22:45:19.370Z,101655.97
2019-05-25T22:47:48.882Z,101653.48
2019-05-25T22:50:18.490Z,101650.53
2019-05-25T22:52:47.922Z,101649.69
2019-05-25T22:55:17.432Z,101643.83
2019-05-25T22:57:47.059Z,101643.11
2019-05-25T23:00:16.962Z,101639.95
2019-05-25T23:02:46.436Z,101633.53
2019-05-25T23:05:16.117Z,101630.94
2019-05-25T23:07:45.531Z,101623.91
2019-05-25T23:10:17.839Z,101626.90
2019-05-25T23:12:47.271Z,101623.08
2019-05-25T23:15:20.270Z,101623.41
2019-05-25T23:17:49.696Z,101619.97
2019-05-25T23:20:19.511Z,101618.62
2019-05-25T23:22:48.951Z,101624.75
2019-05-25T23:25:18.498Z,101619.56
2019-05-25T23:27:48.049Z,101616.79
2019-05-25T23:30:17.977Z,101609.19
2019-05-25T23:32:47.539Z,101604.35
2019-05-25T23:35:17.011Z,101596.83
2019-05-25T23:37:46.452Z,101595.20
2019-05-25T23:40:16.093Z,101593.32
2019-05-25T23:42:45.539Z,101592.14
2019-05-25T23:45:16.724Z,101584.31
2019-05-25T23:47:46.731Z,101585.67
2019-05-25T23:50:16.583Z,101581.66
2019-05-25T23:52:46.340Z,101577.31
2019-05-25T23:55:17.186Z,101571.03
2019-05-25T23:57:46.779Z,101567.33
